createdAt,value
2019-01-24T00:01:14.731Z,26.67
2019-01-24T00:03:46.818Z,23.07
2019-01-24T00:06:36.558Z,25.83
2019-01-24T00:09:26.395Z,26.77
2019-01-24T00:12:16.020Z,27.97
2019-01-24T00:15:06.517Z,25.43
2019-01-24T00:17:49.283Z,21.43
2019-01-24T00:20:19.883Z,24.83
2019-01-24T00:22:51.976Z,26.40
2019-01-24T00:25:42.042Z,26.13
2019-01-24T00:28:24.684Z,26.60
2019-01-24T00:30:56.222Z,24.47
2019-01-24T00:33:27.644Z,24.57
2019-01-24T00:35:58.211Z,22.23
2019-01-24T00:38:49.398Z,28.23
2019-01-24T00:41:20.110Z,25.67
2019-01-24T00:44:11.248Z,24.30
2019-01-24T00:47:00.928Z,25.53
2019-01-24T00:49:31.477Z,27.07
2019-01-24T00:52:21.076Z,24.20
2019-01-24T00:55:12.509Z,25.40
2019-01-24T00:57:54.692Z,27.57
2019-01-24T01:00:37.063Z,25.87
2019-01-24T01:03:19.690Z,28.33
2019-01-24T01:05:50.358Z,26.67
2019-01-24T01:08:21.167Z,29.23
2019-01-24T01:11:11.106Z,22.33
2019-01-24T01:14:00.783Z,29.60
2019-01-24T01:16:43.466Z,26.07
2019-01-24T01:19:27.063Z,27.33
2019-01-24T01:22:09.570Z,23.67
2019-01-24T01:24:51.708Z,25.70
2019-01-24T01:27:33.492Z,26.17
2019-01-24T01:30:16.823Z,25.67
2019-01-24T01:33:06.535Z,26.13
2019-01-24T01:35:37.047Z,23.40
2019-01-24T01:38:28.207Z,23.90
2019-01-24T01:41:10.331Z,22.67
2019-01-24T01:43:40.876Z,25.27
2019-01-24T01:46:30.434Z,23.40
2019-01-24T01:49:13.151Z,28.50
2019-01-24T01:51:55.716Z,26.10
2019-01-24T01:54:26.243Z,29.03
2019-01-24T01:57:17.375Z,22.67
2019-01-24T02:00:01.400Z,23.20
2019-01-24T02:02:43.701Z,24.03
2019-01-24T02:05:26.416Z,26.30
2019-01-24T02:08:10.005Z,21.17
2019-01-24T02:10:41.230Z,24.70
2019-01-24T02:13:13.427Z,22.07
2019-01-24T02:18:28.995Z,28.10
2019-01-24T02:21:20.136Z,25.13
2019-01-24T02:24:09.715Z,23.67
2019-01-24T02:26:41.826Z,22.23
2019-01-24T02:29:31.632Z,21.53
2019-01-24T02:32:03.740Z,21.67
2019-01-24T02:34:53.327Z,28.60
2019-01-24T02:37:44.843Z,24.40
2019-01-24T02:40:29.121Z,28.03
2019-01-24T02:43:12.230Z,21.23
2019-01-24T02:45:54.972Z,18.60
2019-01-24T02:48:38.539Z,22.67
2019-01-24T02:51:09.175Z,22.73
2019-01-24T02:53:39.962Z,24.23
2019-01-24T02:56:12.431Z,21.77
2019-01-24T02:58:44.551Z,24.47
2019-01-24T03:01:27.969Z,22.60
2019-01-24T03:03:58.475Z,24.02
2019-01-24T03:06:49.631Z,23.13
2019-01-24T03:09:51.774Z,20.60
2019-01-24T03:12:22.423Z,21.57
2019-01-24T03:15:13.163Z,20.47
2019-01-24T03:17:55.752Z,24.27
2019-01-24T03:23:17.944Z,21.50
2019-01-24T03:25:49.233Z,25.93
2019-01-24T03:28:40.441Z,25.97
2019-01-24T03:31:42.420Z,20.53
2019-01-24T03:34:13.147Z,23.43
2019-01-24T03:37:02.731Z,22.73
2019-01-24T03:39:52.437Z,21.97
2019-01-24T03:42:36.683Z,21.57
2019-01-24T03:45:09.946Z,19.93
2019-01-24T03:47:41.252Z,24.40
2019-01-24T03:50:30.838Z,26.87
2019-01-24T03:53:21.113Z,23.93
2019-01-24T03:55:52.407Z,26.00
2019-01-24T03:58:34.903Z,22.60
2019-01-24T04:01:17.801Z,20.83
2019-01-24T04:04:00.468Z,20.57
2019-01-24T04:06:43.034Z,24.37
2019-01-24T04:09:24.789Z,23.47
2019-01-24T04:11:55.307Z,26.93
2019-01-24T04:14:44.888Z,24.07
2019-01-24T04:17:34.704Z,26.80
2019-01-24T04:20:06.218Z,26.17
2019-01-24T04:22:55.947Z,29.63
2019-01-24T04:25:38.795Z,26.53
2019-01-24T04:28:10.052Z,23.37
2019-01-24T04:30:59.804Z,25.95
2019-01-24T04:36:10.789Z,24.90
2019-01-24T04:38:41.338Z,24.87
2019-01-24T04:41:24.877Z,24.13
2019-01-24T04:43:55.711Z,20.23
2019-01-24T04:46:45.594Z,25.47
2019-01-24T04:49:17.682Z,27.20
2019-01-24T04:52:11.128Z,28.87
2019-01-24T04:55:00.776Z,26.67
2019-01-24T04:57:50.521Z,22.20
2019-01-24T05:00:40.640Z,21.33
2019-01-24T05:03:30.869Z,24.43
2019-01-24T05:06:01.775Z,24.00
2019-01-24T05:08:51.454Z,25.50
2019-01-24T05:11:41.140Z,26.23
2019-01-24T05:14:42.795Z,24.87
2019-01-24T05:17:25.141Z,27.50
2019-01-24T05:20:07.999Z,25.73
2019-01-24T05:22:38.931Z,27.42
2019-01-24T05:25:28.512Z,28.77
2019-01-24T05:28:18.135Z,30.03
2019-01-24T05:30:50.245Z,23.98
2019-01-24T05:33:34.321Z,26.87
2019-01-24T05:36:05.531Z,24.97
2019-01-24T05:41:57.741Z,24.27
2019-01-24T05:44:29.955Z,23.80
2019-01-24T05:47:02.100Z,21.00
2019-01-24T05:49:53.357Z,22.17
2019-01-24T05:52:43.010Z,22.53
2019-01-24T05:55:32.939Z,24.50
2019-01-24T05:58:22.733Z,27.37
2019-01-24T06:01:08.700Z,24.50
2019-01-24T06:03:52.340Z,22.80
2019-01-24T06:06:23.621Z,20.93
2019-01-24T06:08:55.739Z,25.57
2019-01-24T06:11:40.847Z,22.30
2019-01-24T06:14:11.875Z,26.23
2019-01-24T06:16:44.083Z,16.90
2019-01-24T06:19:35.036Z,23.13
2019-01-24T06:22:17.263Z,18.23
2019-01-24T06:25:01.131Z,20.20
2019-01-24T06:27:32.470Z,22.27
2019-01-24T06:30:21.562Z,23.13
2019-01-24T06:32:51.832Z,20.13
2019-01-24T06:35:48.706Z,27.37
2019-01-24T06:38:45.981Z,20.08
2019-01-24T06:41:28.306Z,22.07
2019-01-24T06:44:12.248Z,21.50
2019-01-24T06:46:54.627Z,23.18
2019-01-24T06:49:37.312Z,24.80
2019-01-24T06:52:08.724Z,26.23
2019-01-24T06:54:39.239Z,22.60
2019-01-24T06:57:30.696Z,24.47
2019-01-24T07:00:22.343Z,24.43
2019-01-24T07:03:17.041Z,22.57
2019-01-24T07:05:48.035Z,26.60
2019-01-24T07:08:37.843Z,22.03
2019-01-24T07:11:20.599Z,23.30
2019-01-24T07:13:51.162Z,23.33
2019-01-24T07:16:23.274Z,22.03
2019-01-24T07:19:10.355Z,24.40
2019-01-24T07:21:52.931Z,19.17
2019-01-24T07:24:23.490Z,25.07
2019-01-24T07:27:13.287Z,26.77
2019-01-24T07:29:44.295Z,23.57
2019-01-24T07:32:35.075Z,28.30
2019-01-24T07:35:18.859Z,26.67
2019-01-24T07:38:01.400Z,22.63
2019-01-24T07:40:43.181Z,19.93
2019-01-24T07:43:14.038Z,20.57
2019-01-24T07:46:03.704Z,22.82
2019-01-24T07:48:54.849Z,23.33
2019-01-24T07:51:27.419Z,23.70
2019-01-24T07:54:17.318Z,24.00
2019-01-24T07:56:47.913Z,19.23
2019-01-24T07:59:41.591Z,25.80
2019-01-24T08:02:25.244Z,21.90
2019-01-24T08:05:07.267Z,22.43
2019-01-24T08:07:39.425Z,24.07
2019-01-24T08:10:30.583Z,16.63
2019-01-24T08:13:15.028Z,21.00
2019-01-24T08:15:46.059Z,20.40
2019-01-24T08:18:16.641Z,24.30
2019-01-24T08:20:48.751Z,24.60
2019-01-24T08:23:38.408Z,19.93
2019-01-24T08:26:22.115Z,21.27
2019-01-24T08:28:52.691Z,22.23
2019-01-24T08:31:43.856Z,20.13
2019-01-24T08:34:34.615Z,22.30
2019-01-24T08:39:56.549Z,20.90
2019-01-24T08:42:40.098Z,22.43
2019-01-24T08:45:11.337Z,22.50
2019-01-24T08:47:43.920Z,20.65
2019-01-24T08:50:33.758Z,19.27
2019-01-24T08:53:04.630Z,20.13
2019-01-24T08:55:48.056Z,21.30
2019-01-24T08:58:30.784Z,23.60
2019-01-24T09:01:13.307Z,19.83
2019-01-24T09:03:58.496Z,19.75
2019-01-24T09:06:29.145Z,20.87
2019-01-24T09:09:18.756Z,21.80
2019-01-24T09:12:08.359Z,19.33
2019-01-24T09:14:50.534Z,21.83
2019-01-24T09:17:57.080Z,19.63
2019-01-24T09:20:32.212Z,19.20
2019-01-24T09:23:22.147Z,18.70
2019-01-24T09:26:12.607Z,20.17
2019-01-24T09:28:56.214Z,21.40
2019-01-24T09:31:27.056Z,20.07
2019-01-24T09:33:57.925Z,18.37
2019-01-24T09:36:30.064Z,20.40
2019-01-24T09:39:19.688Z,21.40
2019-01-24T09:42:09.293Z,22.63
2019-01-24T09:44:51.718Z,24.33
2019-01-24T09:47:22.704Z,23.37
2019-01-24T09:50:13.957Z,21.43
2019-01-24T09:53:03.583Z,20.80
2019-01-24T09:55:34.461Z,22.27
2019-01-24T09:58:25.612Z,19.73
2019-01-24T10:06:51.656Z,20.30
2019-01-24T10:09:37.694Z,23.00
2019-01-24T10:12:19.876Z,21.83
2019-01-24T10:14:51.439Z,20.13
2019-01-24T10:17:41.371Z,20.40
2019-01-24T10:20:31.003Z,21.53
2019-01-24T10:23:14.887Z,21.63
2019-01-24T10:25:57.568Z,26.27
2019-01-24T10:28:43.494Z,23.03
2019-01-24T10:31:25.296Z,23.63
2019-01-24T10:34:07.966Z,26.03
2019-01-24T10:36:51.202Z,22.90
2019-01-24T10:39:23.542Z,22.60
2019-01-24T10:41:55.691Z,21.30
2019-01-24T10:44:37.879Z,22.70
2019-01-24T10:47:10.045Z,22.20
2019-01-24T10:49:59.734Z,28.47
2019-01-24T10:52:30.396Z,20.67
2019-01-24T10:55:01.443Z,23.57
2019-01-24T10:57:31.989Z,23.23
2019-01-24T11:00:02.608Z,21.17
2019-01-24T11:05:57.990Z,22.05
2019-01-24T11:08:28.990Z,21.63
2019-01-24T11:10:59.898Z,20.27
2019-01-24T11:16:24.067Z,22.27
2019-01-24T11:19:15.200Z,21.47
2019-01-24T11:21:45.871Z,23.73
2019-01-24T11:24:35.495Z,21.93
2019-01-24T11:27:25.419Z,19.13
2019-01-24T11:30:18.133Z,20.47
2019-01-24T11:32:50.231Z,22.97
2019-01-24T11:35:22.809Z,22.13
2019-01-24T11:38:07.210Z,20.50
2019-01-24T11:40:37.837Z,18.07
2019-01-24T11:43:08.645Z,22.40
2019-01-24T11:45:59.855Z,20.07
2019-01-24T11:48:42.167Z,19.60
2019-01-24T11:51:14.323Z,19.10
2019-01-24T11:57:05.611Z,22.90
2019-01-24T11:59:47.695Z,20.47
2019-01-24T12:02:18.243Z,22.07
2019-01-24T12:04:49.830Z,20.70
2019-01-24T12:07:20.669Z,21.43
2019-01-24T12:09:51.203Z,20.80
2019-01-24T12:12:40.819Z,18.77
2019-01-24T12:15:30.461Z,18.80
2019-01-24T12:18:06.415Z,19.87
2019-01-24T12:20:37.167Z,17.70
2019-01-24T12:23:26.844Z,17.60
2019-01-24T12:26:16.572Z,18.83
2019-01-24T12:28:59.010Z,20.97
2019-01-24T12:31:29.920Z,19.50
2019-01-24T12:34:19.994Z,17.03
2019-01-24T12:36:52.091Z,16.83
2019-01-24T12:39:41.895Z,18.07
2019-01-24T12:42:16.687Z,20.13
2019-01-24T12:44:47.211Z,18.93
2019-01-24T12:47:37.568Z,18.53
2019-01-24T12:50:19.976Z,16.57
2019-01-24T12:53:03.987Z,18.13
2019-01-24T12:55:46.386Z,16.37
2019-01-24T12:58:17.771Z,17.53
2019-01-24T13:01:07.377Z,17.93
2019-01-24T13:03:50.084Z,16.97
2019-01-24T13:09:15.480Z,16.70
2019-01-24T13:11:58.781Z,19.57
2019-01-24T13:14:30.311Z,17.83
2019-01-24T13:17:20.003Z,18.10
2019-01-24T13:20:13.207Z,17.48
2019-01-24T13:22:44.452Z,19.45
2019-01-24T13:25:35.651Z,17.77
2019-01-24T13:28:26.803Z,15.93
2019-01-24T13:31:10.392Z,17.80
2019-01-24T13:33:41.829Z,18.37
2019-01-24T13:36:31.467Z,17.60
2019-01-24T13:39:21.377Z,16.70
2019-01-24T13:42:04.255Z,18.07
2019-01-24T13:44:53.875Z,16.40
2019-01-24T13:47:44.196Z,16.17
2019-01-24T13:50:16.970Z,18.20
2019-01-24T13:53:06.691Z,17.27
2019-01-24T13:55:57.895Z,18.17
2019-01-24T13:58:30.914Z,17.00
2019-01-24T14:01:03.023Z,16.47
2019-01-24T14:04:11.700Z,17.37
2019-01-24T14:07:01.513Z,16.50
2019-01-24T14:09:43.945Z,19.17
2019-01-24T14:12:26.073Z,18.30
2019-01-24T14:14:57.227Z,19.47
2019-01-24T14:17:27.835Z,17.67
2019-01-24T14:20:19.014Z,16.67
2019-01-24T14:23:22.552Z,17.60
2019-01-24T14:25:43.738Z,16.87
2019-01-24T14:28:15.904Z,16.57
2019-01-24T14:31:05.507Z,15.93
2019-01-24T14:33:47.623Z,16.07
2019-01-24T14:36:25.146Z,13.93
2019-01-24T14:39:28.932Z,17.97
2019-01-24T14:42:10.691Z,15.77
2019-01-24T14:44:41.268Z,14.63
2019-01-24T14:47:11.789Z,15.70
2019-01-24T14:49:42.724Z,16.12
2019-01-24T14:52:32.603Z,16.00
2019-01-24T14:55:25.266Z,16.10
2019-01-24T14:58:15.111Z,17.67
2019-01-24T15:00:57.191Z,14.53
2019-01-24T15:03:27.739Z,16.37
2019-01-24T15:05:59.866Z,14.37
2019-01-24T15:08:31.558Z,16.07
2019-01-24T15:11:21.288Z,14.63
2019-01-24T15:14:03.460Z,15.73
2019-01-24T15:16:45.900Z,14.77
2019-01-24T15:19:17.127Z,17.13
2019-01-24T15:22:06.827Z,14.80
2019-01-24T15:24:58.042Z,12.93
2019-01-24T15:27:29.459Z,14.30
2019-01-24T15:30:21.447Z,17.20
2019-01-24T15:33:03.435Z,22.37
2019-01-24T15:38:08.065Z,26.60
2019-01-24T15:40:53.132Z,18.62
2019-01-24T15:43:35.636Z,24.87
2019-01-24T15:46:06.501Z,23.97
2019-01-24T15:48:56.168Z,28.63
2019-01-24T15:51:38.334Z,12.03
2019-01-24T15:54:10.629Z,13.80
2019-01-24T15:57:00.317Z,16.50
2019-01-24T15:59:31.137Z,13.30
2019-01-24T16:02:20.792Z,13.13
2019-01-24T16:05:05.002Z,12.87
2019-01-24T16:07:37.943Z,14.73
2019-01-24T16:10:10.698Z,11.97
2019-01-24T16:13:00.416Z,13.35
2019-01-24T16:15:50.108Z,15.40
2019-01-24T16:18:40.011Z,12.80
2019-01-24T16:21:11.271Z,14.33
2019-01-24T16:24:02.426Z,18.07
2019-01-24T16:26:44.253Z,15.17
2019-01-24T16:29:27.607Z,13.73
2019-01-24T16:32:10.175Z,13.33
2019-01-24T16:37:35.755Z,12.90
2019-01-24T16:40:18.637Z,12.57
2019-01-24T16:43:03.554Z,12.60
2019-01-24T16:45:45.550Z,15.30
2019-01-24T16:48:16.230Z,15.03
2019-01-24T16:51:07.382Z,13.53
2019-01-24T16:53:51.644Z,14.20
2019-01-24T16:56:41.481Z,11.70
2019-01-24T16:59:31.313Z,15.83
2019-01-24T17:02:21.019Z,12.70
2019-01-24T17:04:53.374Z,14.27
2019-01-24T17:07:36.859Z,13.20
2019-01-24T17:10:09.663Z,19.47
2019-01-24T17:12:40.183Z,13.90
2019-01-24T17:15:29.911Z,16.43
2019-01-24T17:18:11.943Z,19.47
2019-01-24T17:20:42.495Z,16.50
2019-01-24T17:23:32.086Z,16.63
2019-01-24T17:26:22.071Z,13.80
2019-01-24T17:28:52.668Z,13.47
2019-01-24T17:31:43.159Z,12.83
2019-01-24T17:34:24.944Z,13.10
2019-01-24T17:36:55.507Z,11.37
2019-01-24T17:39:45.163Z,15.37
2019-01-24T17:42:34.912Z,13.57
2019-01-24T17:45:08.287Z,13.23
2019-01-24T17:47:57.866Z,14.47
2019-01-24T17:50:47.392Z,16.13
2019-01-24T17:53:29.882Z,12.07
2019-01-24T17:56:12.388Z,14.10
2019-01-24T17:58:42.945Z,13.67
2019-01-24T18:01:32.855Z,12.60
2019-01-24T18:04:22.447Z,12.50
2019-01-24T18:07:12.075Z,14.27
2019-01-24T18:09:54.242Z,13.07
2019-01-24T18:12:24.797Z,11.90
2019-01-24T18:15:16.043Z,11.37
2019-01-24T18:17:46.679Z,13.03
2019-01-24T18:20:36.386Z,11.20
2019-01-24T18:23:25.967Z,10.97
2019-01-24T18:26:08.465Z,10.33
2019-01-24T18:28:50.823Z,14.10
2019-01-24T18:31:33.022Z,9.93
2019-01-24T18:34:16.631Z,10.40
2019-01-24T18:36:48.275Z,11.63
2019-01-24T18:39:32.587Z,8.17
2019-01-24T18:42:03.142Z,10.43
2019-01-24T18:44:33.635Z,10.33
2019-01-24T18:47:24.552Z,12.63
2019-01-24T18:50:33.851Z,10.10
2019-01-24T18:53:16.245Z,9.77
2019-01-24T18:55:58.867Z,9.40
2019-01-24T18:58:34.970Z,12.87
2019-01-24T19:01:24.688Z,9.90
2019-01-24T19:07:15.715Z,10.53
2019-01-24T19:09:58.046Z,8.65
2019-01-24T19:15:23.287Z,10.67
2019-01-24T19:18:05.752Z,11.57
2019-01-24T19:20:47.734Z,13.13
2019-01-24T19:23:29.980Z,9.53
2019-01-24T19:26:11.963Z,10.17
2019-01-24T19:28:45.285Z,11.80
2019-01-24T19:31:15.855Z,10.07
2019-01-24T19:34:05.567Z,9.60
2019-01-24T19:36:36.849Z,10.20
2019-01-24T19:39:26.484Z,10.33
2019-01-24T19:42:16.090Z,9.40
2019-01-24T19:44:58.521Z,8.43
2019-01-24T19:47:40.822Z,8.97
2019-01-24T19:50:22.843Z,9.77
2019-01-24T19:52:53.476Z,8.53
2019-01-24T19:55:43.071Z,8.60
2019-01-24T19:58:13.656Z,10.10
2019-01-24T20:01:04.328Z,10.50
2019-01-24T20:03:46.813Z,8.77
2019-01-24T20:06:17.844Z,9.73
2019-01-24T20:09:07.984Z,7.03
2019-01-24T20:11:49.906Z,6.12
2019-01-24T20:14:20.440Z,9.93
2019-01-24T20:17:10.015Z,6.73
2019-01-24T20:19:59.627Z,6.83
2019-01-24T20:22:30.279Z,8.27
2019-01-24T20:28:15.274Z,8.97
2019-01-24T20:30:45.802Z,8.57
2019-01-24T20:33:16.338Z,7.43
2019-01-24T20:36:06.371Z,13.40
2019-01-24T20:38:55.977Z,7.20
2019-01-24T20:41:26.479Z,6.10
2019-01-24T20:43:57.009Z,10.30
2019-01-24T20:46:27.534Z,10.47
2019-01-24T20:49:17.230Z,9.40
2019-01-24T20:51:47.748Z,9.10
2019-01-24T20:54:18.300Z,8.37
2019-01-24T20:57:08.004Z,8.37
2019-01-24T20:59:52.107Z,10.07
2019-01-24T21:02:22.662Z,8.27
2019-01-24T21:05:12.708Z,11.67
2019-01-24T21:08:04.731Z,10.00
2019-01-24T21:10:46.883Z,8.85
2019-01-24T21:13:29.084Z,8.47
2019-01-24T21:16:11.684Z,11.77
2019-01-24T21:18:42.187Z,13.27
2019-01-24T21:21:31.764Z,13.37
2019-01-24T21:27:05.799Z,14.30
2019-01-24T21:29:55.907Z,12.03
2019-01-24T21:32:26.539Z,11.30
2019-01-24T21:34:57.045Z,10.70
2019-01-24T21:37:46.737Z,10.30
2019-01-24T21:40:18.483Z,8.33
2019-01-24T21:43:08.195Z,11.30
2019-01-24T21:45:38.807Z,7.50
2019-01-24T21:48:09.390Z,7.80
2019-01-24T21:50:58.982Z,9.37
2019-01-24T21:53:41.559Z,9.20
2019-01-24T21:56:25.167Z,10.23
2019-01-24T21:58:57.161Z,10.83
2019-01-24T22:01:29.228Z,8.20
2019-01-24T22:04:18.813Z,8.17
2019-01-24T22:06:49.575Z,9.30
2019-01-24T22:09:51.587Z,8.23
2019-01-24T22:12:41.154Z,13.67
2019-01-24T22:15:30.854Z,8.13
2019-01-24T22:18:01.408Z,10.70
2019-01-24T22:20:55.537Z,11.53
2019-01-24T22:23:54.802Z,8.30
2019-01-24T22:26:38.161Z,10.27
2019-01-24T22:29:08.735Z,8.77
2019-01-24T22:31:58.316Z,10.27
2019-01-24T22:34:40.305Z,12.30
2019-01-24T22:37:22.235Z,9.63
2019-01-24T22:42:36.146Z,10.27
2019-01-24T22:45:25.733Z,10.77
2019-01-24T22:48:09.395Z,11.97
2019-01-24T22:50:39.903Z,11.93
2019-01-24T22:53:48.891Z,11.33
2019-01-24T22:59:14.023Z,12.17
2019-01-24T23:04:31.380Z,9.67
2019-01-24T23:07:20.943Z,9.37
2019-01-24T23:10:10.636Z,12.40
2019-01-24T23:12:41.179Z,9.73
2019-01-24T23:15:30.770Z,10.17
2019-01-24T23:18:13.017Z,9.20
2019-01-24T23:20:55.193Z,10.23
2019-01-24T23:23:25.725Z,9.43
2019-01-24T23:25:56.258Z,8.00
2019-01-24T23:28:45.838Z,10.87
2019-01-24T23:31:35.427Z,8.83
2019-01-24T23:34:17.463Z,8.73
2019-01-24T23:36:59.941Z,9.80
2019-01-24T23:39:42.303Z,9.00
2019-01-24T23:45:08.031Z,8.25
2019-01-24T23:47:51.840Z,10.17
2019-01-24T23:50:33.769Z,15.60
2019-01-24T23:53:16.336Z,11.53
2019-01-24T23:55:47.020Z,11.83
2019-01-24T23:58:38.179Z,12.37
